Time,TemperatureF,DewpointF,PressureIn,WindDirection,WindDirectionDegrees,WindSpeedMPH,WindSpeedGustMPH,Humidity,HourlyPrecipIn,Conditions,Clouds,dailyrainin,SoftwareType,DateUTC
2013-10-13 00:03:00,-999.0,-99.9,-100.00,East,83,7.0,11.0,-999,-99.99,,,-99.99,,2013-10-13 04:03:00,
2013-10-13 00:14:00,62.0,-99.9,-100.00,East,83,7.0,11.0,-999,-99.99,,,-99.99,,2013-10-13 04:14:00,
2013-10-13 00:24:00,62.0,-99.9,-100.00,East,83,7.0,11.0,-999,-99.99,,,-99.99,,2013-10-13 04:24:00,
2013-10-13 00:54:00,61.0,-99.9,-100.00,East,87,7.0,11.0,-999,-99.99,,,-99.99,,2013-10-13 04:54:00,
2013-10-13 01:04:00,61.0,-99.9,-100.00,East,87,7.0,11.0,-999,-99.99,,,-99.99,,2013-10-13 05:04:00,
2013-10-13 01:13:00,61.0,-99.9,-100.00,East,87,7.0,11.0,-999,-99.99,,,-99.99,,2013-10-13 05:13:00,
2013-10-13 01:23:00,61.0,-99.9,-100.00,East,87,7.0,11.0,-999,-99.99,,,-99.99,,2013-10-13 05:23:00,
2013-10-13 01:52:00,61.0,-99.9,-100.00,ENE,58,6.0,12.0,-999,-99.99,,,-99.99,,2013-10-13 05:52:00,
2013-10-13 02:02:00,61.0,-99.9,-100.00,ENE,58,6.0,12.0,-999,-99.99,,,-99.99,,2013-10-13 06:02:00,
2013-10-13 02:13:00,61.0,-99.9,-100.00,ENE,58,6.0,12.0,-999,-99.99,,,-99.99,,2013-10-13 06:13:00,
2013-10-13 02:22:00,61.0,-99.9,-100.00,ENE,58,6.0,12.0,-999,-99.99,,,-99.99,,2013-10-13 06:22:00,
2013-10-13 02:52:00,61.0,-99.9,-100.00,ENE,69,6.0,13.0,-999,-99.99,,,-99.99,,2013-10-13 06:52:00,
2013-10-13 03:02:00,61.0,-99.9,-100.00,ENE,69,6.0,13.0,-999,-99.99,,,-99.99,,2013-10-13 07:02:00,
2013-10-13 03:11:00,61.0,-99.9,-100.00,ENE,69,6.0,13.0,-999,-99.99,,,-99.99,,2013-10-13 07:11:00,
2013-10-13 03:22:00,61.0,-99.9,-100.00,ENE,69,6.0,13.0,-999,-99.99,,,-99.99,,2013-10-13 07:22:00,
2013-10-13 03:52:00,59.0,-99.9,-100.00,ENE,57,5.0,11.0,-999,-99.99,,,-99.99,,2013-10-13 07:52:00,
2013-10-13 04:02:00,59.0,-99.9,-100.00,ENE,57,5.0,11.0,-999,-99.99,,,-99.99,,2013-10-13 08:02:00,
2013-10-13 04:12:00,59.0,-99.9,-100.00,ENE,57,5.0,11.0,-999,-99.99,,,-99.99,,2013-10-13 08:12:00,
2013-10-13 04:22:00,59.0,-99.9,-100.00,ENE,57,5.0,11.0,-999,-99.99,,,-99.99,,2013-10-13 08:22:00,
2013-10-13 04:52:00,59.0,-99.9,-100.00,ENE,75,4.0,10.0,-999,-99.99,,,-99.99,,2013-10-13 08:52:00,
2013-10-13 05:02:00,59.0,-99.9,-100.00,ENE,75,4.0,10.0,-999,-99.99,,,-99.99,,2013-10-13 09:02:00,
2013-10-13 05:12:00,59.0,-99.9,-100.00,ENE,75,4.0,10.0,-999,-99.99,,,-99.99,,2013-10-13 09:12:00,
2013-10-13 05:22:00,59.0,-99.9,-100.00,ENE,75,4.0,10.0,-999,-99.99,,,-99.99,,2013-10-13 09:22:00,
2013-10-13 05:53:00,58.0,-99.9,-100.00,ENE,63,4.0,11.0,-999,-99.99,,,-99.99,,2013-10-13 09:53:00,
2013-10-13 06:03:00,58.0,-99.9,-100.00,ENE,63,4.0,11.0,-999,-99.99,,,-99.99,,2013-10-13 10:03:00,
2013-10-13 06:13:00,58.0,-99.9,-100.00,ENE,63,4.0,11.0,-999,-99.99,,,-99.99,,2013-10-13 10:13:00,
2013-10-13 06:24:00,58.0,-99.9,-100.00,ENE,63,4.0,11.0,-999,-99.99,,,-99.99,,2013-10-13 10:24:00,
2013-10-13 06:53:00,57.0,-99.9,-100.00,ENE,73,5.0,14.0,-999,-99.99,,,-99.99,,2013-10-13 10:53:00,
2013-10-13 07:03:00,57.0,-99.9,-100.00,ENE,73,5.0,14.0,-999,-99.99,,,-99.99,,2013-10-13 11:03:00,
2013-10-13 07:12:00,57.0,-99.9,-100.00,ENE,73,5.0,14.0,-999,-99.99,,,-99.99,,2013-10-13 11:12:00,
2013-10-13 07:22:00,57.0,-99.9,-100.00,ENE,73,5.0,14.0,-999,-99.99,,,-99.99,,2013-10-13 11:22:00,
2013-10-13 07:52:00,57.0,-99.9,-100.00,ENE,66,2.0,6.0,-999,-99.99,,,-99.99,,2013-10-13 11:52:00,
2013-10-13 08:02:00,57.0,-99.9,-100.00,ENE,66,2.0,6.0,-999,-99.99,,,-99.99,,2013-10-13 12:02:00,
2013-10-13 08:12:00,57.0,-99.9,-100.00,ENE,66,2.0,6.0,-999,-99.99,,,-99.99,,2013-10-13 12:12:00,
2013-10-13 08:22:00,57.0,-99.9,-100.00,ENE,66,2.0,6.0,-999,-99.99,,,-99.99,,2013-10-13 12:22:00,
2013-10-13 08:53:00,57.0,-99.9,-100.00,East,79,6.0,10.0,-999,-99.99,,,-99.99,,2013-10-13 12:53:00,
2013-10-13 09:02:00,57.0,-99.9,-100.00,East,79,6.0,10.0,-999,-99.99,,,-99.99,,2013-10-13 13:02:00,
2013-10-13 09:12:00,57.0,-99.9,-100.00,East,79,6.0,10.0,-999,-99.99,,,-99.99,,2013-10-13 13:12:00,
2013-10-13 09:22:00,57.0,-99.9,-100.00,East,79,6.0,10.0,-999,-99.99,,,-99.99,,2013-10-13 13:22:00,
2013-10-13 09:52:00,61.0,-99.9,-100.00,East,80,6.0,10.0,-999,0.00,,,-99.99,,2013-10-13 13:52:00,
2013-10-13 10:02:00,61.0,-99.9,-100.00,East,80,6.0,10.0,-999,0.00,,,-99.99,,2013-10-13 14:02:00,
2013-10-13 10:11:00,61.0,-99.9,-100.00,East,80,6.0,10.0,-999,0.00,,,-99.99,,2013-10-13 14:11:00,
2013-10-13 10:22:00,61.0,-99.9,-100.00,East,80,6.0,10.0,-999,0.00,,,-99.99,,2013-10-13 14:22:00,
2013-10-13 10:52:00,61.0,-99.9,-100.00,NE,42,3.0,6.0,-999,-99.99,,,-99.99,,2013-10-13 14:52:00,
2013-10-13 11:01:00,61.0,-99.9,-100.00,NE,42,3.0,6.0,-999,-99.99,,,-99.99,,2013-10-13 15:01:00,
2013-10-13 11:12:00,61.0,-99.9,-100.00,NE,42,3.0,6.0,-999,-99.99,,,-99.99,,2013-10-13 15:12:00,
2013-10-13 11:22:00,61.0,-99.9,-100.00,NE,42,3.0,6.0,-999,-99.99,,,-99.99,,2013-10-13 15:22:00,
2013-10-13 11:54:00,64.0,-99.9,-100.00,ENE,76,3.0,6.0,-999,-99.99,,,-99.99,,2013-10-13 15:54:00,
2013-10-13 12:03:00,64.0,-99.9,-100.00,ENE,76,3.0,6.0,-999,-99.99,,,-99.99,,2013-10-13 16:03:00,
2013-10-13 12:13:00,64.0,-99.9,-100.00,ENE,76,3.0,6.0,-999,-99.99,,,-99.99,,2013-10-13 16:13:00,
2013-10-13 12:24:00,64.0,-99.9,-100.00,ENE,76,3.0,6.0,-999,-99.99,,,-99.99,,2013-10-13 16:24:00,
2013-10-13 12:55:00,64.0,-99.9,-100.00,ENE,69,3.0,8.0,-999,-99.99,,,-99.99,,2013-10-13 16:55:00,
2013-10-13 13:03:00,64.0,-99.9,-100.00,ENE,69,3.0,8.0,-999,-99.99,,,-99.99,,2013-10-13 17:03:00,
2013-10-13 13:13:00,64.0,-99.9,-100.00,ENE,69,3.0,8.0,-999,-99.99,,,-99.99,,2013-10-13 17:13:00,
2013-10-13 13:22:00,64.0,-99.9,-100.00,ENE,69,3.0,8.0,-999,-99.99,,,-99.99,,2013-10-13 17:22:00,
2013-10-13 13:53:00,63.0,-99.9,-100.00,East,95,4.0,7.0,-999,-99.99,,,-99.99,,2013-10-13 17:53:00,
2013-10-13 14:02:00,63.0,-99.9,-100.00,East,95,4.0,7.0,-999,-99.99,,,-99.99,,2013-10-13 18:02:00,
2013-10-13 14:12:00,63.0,-99.9,-100.00,East,95,4.0,7.0,-999,-99.99,,,-99.99,,2013-10-13 18:12:00,
2013-10-13 14:22:00,63.0,-99.9,-100.00,East,95,4.0,7.0,-999,-99.99,,,-99.99,,2013-10-13 18:22:00,
2013-10-13 14:52:00,64.0,-99.9,-100.00,East,90,8.0,10.0,-999,-99.99,,,-99.99,,2013-10-13 18:52:00,
2013-10-13 15:02:00,64.0,-99.9,-100.00,East,90,8.0,10.0,-999,-99.99,,,-99.99,,2013-10-13 19:02:00,
2013-10-13 15:11:00,64.0,-99.9,-100.00,East,90,8.0,10.0,-999,-99.99,,,-99.99,,2013-10-13 19:11:00,
2013-10-13 15:22:00,64.0,-99.9,-100.00,East,90,8.0,10.0,-999,-99.99,,,-99.99,,2013-10-13 19:22:00,
2013-10-13 15:53:00,64.0,-99.9,-100.00,East,93,4.0,12.0,-999,-99.99,,,-99.99,,2013-10-13 19:53:00,
2013-10-13 16:02:00,64.0,-99.9,-100.00,East,93,4.0,12.0,-999,-99.99,,,-99.99,,2013-10-13 20:02:00,
2013-10-13 16:12:00,64.0,-99.9,-100.00,East,93,4.0,12.0,-999,-99.99,,,-99.99,,2013-10-13 20:12:00,
2013-10-13 16:22:00,64.0,-99.9,-100.00,East,93,4.0,12.0,-999,-99.99,,,-99.99,,2013-10-13 20:22:00,
2013-10-13 16:52:00,63.0,-99.9,-100.00,ESE,103,11.0,15.0,-999,-99.99,,,-99.99,,2013-10-13 20:52:00,
2013-10-13 17:03:00,63.0,-99.9,-100.00,ESE,103,11.0,15.0,-999,-99.99,,,-99.99,,2013-10-13 21:03:00,
2013-10-13 17:11:00,63.0,-99.9,-100.00,ESE,103,11.0,15.0,-999,-99.99,,,-99.99,,2013-10-13 21:11:00,
2013-10-13 17:22:00,63.0,-99.9,-100.00,ESE,103,11.0,15.0,-999,-99.99,,,-99.99,,2013-10-13 21:22:00,
2013-10-13 17:55:00,61.0,-99.9,-100.00,SE,124,11.0,15.0,-999,-99.99,,,-99.99,,2013-10-13 21:55:00,
2013-10-13 18:04:00,61.0,-99.9,-100.00,SE,124,11.0,15.0,-999,-99.99,,,-99.99,,2013-10-13 22:04:00,
2013-10-13 18:13:00,61.0,-99.9,-100.00,SE,124,11.0,15.0,-999,-99.99,,,-99.99,,2013-10-13 22:13:00,
2013-10-13 18:24:00,61.0,-99.9,-100.00,SE,124,11.0,15.0,-999,-99.99,,,-99.99,,2013-10-13 22:24:00,
2013-10-13 18:53:00,58.0,-99.9,-100.00,ESE,116,9.0,12.0,-999,-99.99,,,-99.99,,2013-10-13 22:53:00,
2013-10-13 19:03:00,58.0,-99.9,-100.00,ESE,116,9.0,12.0,-999,-99.99,,,-99.99,,2013-10-13 23:03:00,
2013-10-13 19:12:00,58.0,-99.9,-100.00,ESE,116,9.0,12.0,-999,-99.99,,,-99.99,,2013-10-13 23:12:00,
2013-10-13 19:22:00,58.0,-99.9,-100.00,ESE,116,9.0,12.0,-999,-99.99,,,-99.99,,2013-10-13 23:22:00,
2013-10-13 19:52:00,57.0,-99.9,-100.00,ESE,111,5.0,6.0,-999,-99.99,,,-99.99,,2013-10-13 23:52:00,
2013-10-13 20:02:00,57.0,-99.9,-100.00,ESE,111,5.0,6.0,-999,-99.99,,,-99.99,,2013-10-14 00:02:00,
2013-10-13 20:12:00,57.0,-99.9,-100.00,ESE,111,5.0,6.0,-999,-99.99,,,-99.99,,2013-10-14 00:12:00,
2013-10-13 20:22:00,57.0,-99.9,-100.00,ESE,111,5.0,6.0,-999,-99.99,,,-99.99,,2013-10-14 00:22:00,
2013-10-13 20:52:00,56.0,-99.9,-100.00,East,98,3.0,5.0,-999,-99.99,,,-99.99,,2013-10-14 00:52:00,
2013-10-13 21:02:00,56.0,-99.9,-100.00,East,98,3.0,5.0,-999,-99.99,,,-99.99,,2013-10-14 01:02:00,
2013-10-13 21:11:00,56.0,-99.9,-100.00,East,98,3.0,5.0,-999,-99.99,,,-99.99,,2013-10-14 01:11:00,
2013-10-13 21:22:00,56.0,-99.9,-100.00,East,98,3.0,5.0,-999,-99.99,,,-99.99,,2013-10-14 01:22:00,
2013-10-13 21:52:00,55.0,-99.9,-100.00,East,101,5.0,6.0,-999,0.00,,,-99.99,,2013-10-14 01:52:00,
2013-10-13 22:02:00,55.0,-99.9,-100.00,East,101,5.0,6.0,-999,0.00,,,-99.99,,2013-10-14 02:02:00,
2013-10-13 22:12:00,55.0,-99.9,-100.00,East,101,5.0,6.0,-999,0.00,,,-99.99,,2013-10-14 02:12:00,
2013-10-13 22:22:00,55.0,-99.9,-100.00,East,101,5.0,6.0,-999,0.00,,,-99.99,,2013-10-14 02:22:00,
2013-10-13 22:52:00,54.0,-99.9,-100.00,ESE,105,5.0,6.0,-999,-99.99,,,-99.99,,2013-10-14 02:52:00,
2013-10-13 23:03:00,54.0,-99.9,-100.00,ESE,105,5.0,6.0,-999,-99.99,,,-99.99,,2013-10-14 03:03:00,
2013-10-13 23:12:00,54.0,-99.9,-100.00,ESE,105,5.0,6.0,-999,-99.99,,,-99.99,,2013-10-14 03:12:00,
2013-10-13 23:22:00,54.0,-99.9,-100.00,ESE,105,5.0,6.0,-999,-99.99,,,-99.99,,2013-10-14 03:22:00,
2013-10-13 23:55:00,54.0,-99.9,-100.00,East,86,3.0,7.0,-999,0.00,,,-99.99,,2013-10-14 03:55:00,